EGUN

RAF Mildenhall Airport

Mildenhall, United Kingdom
METAR EGUN 092156Z 27009KT 9999 CLR 04/04 A3009 RMK AO2A SLP193 T00380038 $
Observed Flight Rules
Dec-9 @ 21:56 UTC (24 minutes ago) Visual Flight Rules
Wind Visibility Clouds
270° at 9 knots 10,000+ meters
  • Clear skies
Temperatures Readings
Current 4°C / 39°F
Dewpoint 4°C / 39°F
Humidity 100%
Altimeter 30.09" Hg
Pressure 1019.3 hPa
Elevation 10
METAR EGUN 092156Z 27009KT 9999 CLR 04/04 A3009 RMK AO2A SLP193 T00380038 $
Observed Flight Rules
Dec-9 @ 21:56 UTC
(24 minutes ago)
VFR
Wind Visibility
270° at 9 knots 10,000+ meters
Clouds
  • Clear skies
Temperature Dewpoint
4°C / 39°F 4°C / 39°F
Humidity Altimeter Pressure
100% 30.09" Hg 1019.3 hPa